sensor_id;sensor_type;location;lat;lon;timestamp;P1;durP1;ratioP1;P2;durP2;ratioP2
46745;SDS011;32493;50.514;9.678;2024-01-11T00:02:13;114.60;;;36.67;;
46745;SDS011;32493;50.514;9.678;2024-01-11T00:04:40;109.68;;;34.65;;
46745;SDS011;32493;50.514;9.678;2024-01-11T00:07:08;101.05;;;33.78;;
46745;SDS011;32493;50.514;9.678;2024-01-11T00:09:38;94.60;;;31.27;;
46745;SDS011;32493;50.514;9.678;2024-01-11T00:12:07;96.18;;;32.30;;
46745;SDS011;32493;50.514;9.678;2024-01-11T00:14:35;97.90;;;30.80;;
46745;SDS011;32493;50.514;9.678;2024-01-11T00:17:04;88.05;;;32.47;;
46745;SDS011;32493;50.514;9.678;2024-01-11T00:19:33;88.32;;;31.40;;
46745;SDS011;32493;50.514;9.678;2024-01-11T00:22:03;98.63;;;31.08;;
46745;SDS011;32493;50.514;9.678;2024-01-11T00:24:32;98.65;;;32.28;;
46745;SDS011;32493;50.514;9.678;2024-01-11T00:27:05;101.97;;;32.33;;
46745;SDS011;32493;50.514;9.678;2024-01-11T00:29:33;100.95;;;32.42;;
46745;SDS011;32493;50.514;9.678;2024-01-11T00:32:02;97.85;;;33.78;;
46745;SDS011;32493;50.514;9.678;2024-01-11T00:34:32;92.03;;;31.17;;
46745;SDS011;32493;50.514;9.678;2024-01-11T00:37:04;81.45;;;28.80;;
46745;SDS011;32493;50.514;9.678;2024-01-11T00:39:37;86.90;;;30.75;;
46745;SDS011;32493;50.514;9.678;2024-01-11T00:42:05;124.70;;;38.47;;
46745;SDS011;32493;50.514;9.678;2024-01-11T00:47:01;132.93;;;38.05;;
46745;SDS011;32493;50.514;9.678;2024-01-11T00:49:29;110.40;;;33.83;;
46745;SDS011;32493;50.514;9.678;2024-01-11T00:51:58;96.88;;;30.83;;
46745;SDS011;32493;50.514;9.678;2024-01-11T00:54:26;91.07;;;27.90;;
46745;SDS011;32493;50.514;9.678;2024-01-11T00:56:55;96.68;;;30.88;;
46745;SDS011;32493;50.514;9.678;2024-01-11T00:59:24;98.35;;;30.60;;
46745;SDS011;32493;50.514;9.678;2024-01-11T01:01:52;115.90;;;34.13;;
46745;SDS011;32493;50.514;9.678;2024-01-11T01:04:20;86.88;;;29.95;;
46745;SDS011;32493;50.514;9.678;2024-01-11T01:06:52;95.22;;;29.15;;
46745;SDS011;32493;50.514;9.678;2024-01-11T01:09:19;89.20;;;28.50;;
46745;SDS011;32493;50.514;9.678;2024-01-11T01:14:18;88.15;;;29.20;;
46745;SDS011;32493;50.514;9.678;2024-01-11T01:16:46;96.05;;;29.80;;
46745;SDS011;32493;50.514;9.678;2024-01-11T01:19:15;97.57;;;30.23;;
46745;SDS011;32493;50.514;9.678;2024-01-11T01:21:42;82.95;;;28.60;;
46745;SDS011;32493;50.514;9.678;2024-01-11T01:24:11;84.47;;;28.00;;
46745;SDS011;32493;50.514;9.678;2024-01-11T01:26:39;81.18;;;28.02;;
46745;SDS011;32493;50.514;9.678;2024-01-11T01:29:08;87.22;;;29.55;;
46745;SDS011;32493;50.514;9.678;2024-01-11T01:31:38;97.93;;;30.02;;
46745;SDS011;32493;50.514;9.678;2024-01-11T01:34:07;98.25;;;30.23;;
46745;SDS011;32493;50.514;9.678;2024-01-11T01:36:35;86.40;;;29.52;;
46745;SDS011;32493;50.514;9.678;2024-01-11T01:39:02;86.32;;;27.80;;
46745;SDS011;32493;50.514;9.678;2024-01-11T01:41:32;92.35;;;30.30;;
46745;SDS011;32493;50.514;9.678;2024-01-11T01:44:02;97.03;;;30.80;;
46745;SDS011;32493;50.514;9.678;2024-01-11T01:46:30;90.45;;;29.27;;
46745;SDS011;32493;50.514;9.678;2024-01-11T01:48:57;96.35;;;29.98;;
46745;SDS011;32493;50.514;9.678;2024-01-11T01:51:26;86.25;;;30.52;;
46745;SDS011;32493;50.514;9.678;2024-01-11T01:53:55;102.57;;;30.17;;
46745;SDS011;32493;50.514;9.678;2024-01-11T01:56:24;90.97;;;31.33;;
46745;SDS011;32493;50.514;9.678;2024-01-11T01:58:53;96.78;;;31.83;;
46745;SDS011;32493;50.514;9.678;2024-01-11T02:01:21;90.13;;;30.55;;
46745;SDS011;32493;50.514;9.678;2024-01-11T02:03:50;86.13;;;28.13;;
46745;SDS011;32493;50.514;9.678;2024-01-11T02:06:20;86.15;;;29.20;;
46745;SDS011;32493;50.514;9.678;2024-01-11T02:08:52;93.97;;;29.52;;
46745;SDS011;32493;50.514;9.678;2024-01-11T02:11:24;101.93;;;31.13;;
46745;SDS011;32493;50.514;9.678;2024-01-11T02:13:53;93.20;;;29.77;;
46745;SDS011;32493;50.514;9.678;2024-01-11T02:16:24;88.97;;;29.88;;
46745;SDS011;32493;50.514;9.678;2024-01-11T02:18:51;89.90;;;29.40;;
46745;SDS011;32493;50.514;9.678;2024-01-11T02:21:19;79.13;;;27.83;;
46745;SDS011;32493;50.514;9.678;2024-01-11T02:24:04;104.53;;;31.83;;
46745;SDS011;32493;50.514;9.678;2024-01-11T02:26:34;90.03;;;28.92;;
46745;SDS011;32493;50.514;9.678;2024-01-11T02:29:02;85.38;;;26.70;;
46745;SDS011;32493;50.514;9.678;2024-01-11T02:31:31;90.30;;;29.65;;
46745;SDS011;32493;50.514;9.678;2024-01-11T02:34:01;86.32;;;29.08;;
46745;SDS011;32493;50.514;9.678;2024-01-11T02:36:31;95.05;;;31.27;;
46745;SDS011;32493;50.514;9.678;2024-01-11T02:38:58;98.90;;;31.30;;
46745;SDS011;32493;50.514;9.678;2024-01-11T02:41:28;83.55;;;27.92;;
46745;SDS011;32493;50.514;9.678;2024-01-11T02:46:23;87.78;;;27.52;;
46745;SDS011;32493;50.514;9.678;2024-01-11T02:48:51;93.55;;;29.60;;
46745;SDS011;32493;50.514;9.678;2024-01-11T02:51:19;97.82;;;31.33;;
46745;SDS011;32493;50.514;9.678;2024-01-11T02:53:47;92.10;;;28.65;;
46745;SDS011;32493;50.514;9.678;2024-01-11T02:56:17;93.05;;;27.88;;
46745;SDS011;32493;50.514;9.678;2024-01-11T02:58:44;97.00;;;29.42;;
46745;SDS011;32493;50.514;9.678;2024-01-11T03:01:13;106.63;;;31.25;;
46745;SDS011;32493;50.514;9.678;2024-01-11T03:03:40;94.95;;;30.38;;
46745;SDS011;32493;50.514;9.678;2024-01-11T03:08:39;91.43;;;26.48;;
46745;SDS011;32493;50.514;9.678;2024-01-11T03:11:07;95.60;;;30.35;;
46745;SDS011;32493;50.514;9.678;2024-01-11T03:13:35;98.45;;;29.42;;
46745;SDS011;32493;50.514;9.678;2024-01-11T03:16:04;94.90;;;30.08;;
46745;SDS011;32493;50.514;9.678;2024-01-11T03:18:31;102.95;;;32.03;;
46745;SDS011;32493;50.514;9.678;2024-01-11T03:20:59;99.38;;;32.13;;
46745;SDS011;32493;50.514;9.678;2024-01-11T03:23:27;100.53;;;31.67;;
46745;SDS011;32493;50.514;9.678;2024-01-11T03:25:54;96.93;;;29.48;;
46745;SDS011;32493;50.514;9.678;2024-01-11T03:28:22;107.20;;;34.38;;
46745;SDS011;32493;50.514;9.678;2024-01-11T03:30:49;107.53;;;33.53;;
46745;SDS011;32493;50.514;9.678;2024-01-11T03:33:17;95.90;;;32.22;;
46745;SDS011;32493;50.514;9.678;2024-01-11T03:35:45;98.10;;;30.35;;
46745;SDS011;32493;50.514;9.678;2024-01-11T03:38:13;85.35;;;27.40;;
46745;SDS011;32493;50.514;9.678;2024-01-11T03:40:43;95.05;;;29.38;;
46745;SDS011;32493;50.514;9.678;2024-01-11T03:43:17;94.30;;;30.42;;
46745;SDS011;32493;50.514;9.678;2024-01-11T03:45:45;101.15;;;31.63;;
46745;SDS011;32493;50.514;9.678;2024-01-11T03:48:12;93.18;;;30.60;;
46745;SDS011;32493;50.514;9.678;2024-01-11T03:50:40;98.93;;;30.05;;
46745;SDS011;32493;50.514;9.678;2024-01-11T03:53:09;97.47;;;29.63;;
46745;SDS011;32493;50.514;9.678;2024-01-11T03:55:36;98.53;;;30.17;;
46745;SDS011;32493;50.514;9.678;2024-01-11T03:58:06;86.68;;;29.45;;
46745;SDS011;32493;50.514;9.678;2024-01-11T04:00:35;86.18;;;29.05;;
46745;SDS011;32493;50.514;9.678;2024-01-11T04:03:08;99.82;;;31.42;;
46745;SDS011;32493;50.514;9.678;2024-01-11T04:05:39;96.57;;;31.20;;
46745;SDS011;32493;50.514;9.678;2024-01-11T04:08:06;105.85;;;33.03;;
46745;SDS011;32493;50.514;9.678;2024-01-11T04:10:34;98.45;;;31.50;;
46745;SDS011;32493;50.514;9.678;2024-01-11T04:13:06;106.72;;;32.63;;
46745;SDS011;32493;50.514;9.678;2024-01-11T04:15:34;106.15;;;32.55;;
46745;SDS011;32493;50.514;9.678;2024-01-11T04:18:02;97.88;;;34.08;;
46745;SDS011;32493;50.514;9.678;2024-01-11T04:20:29;94.22;;;30.25;;
46745;SDS011;32493;50.514;9.678;2024-01-11T04:22:58;99.93;;;30.80;;
46745;SDS011;32493;50.514;9.678;2024-01-11T04:25:28;115.05;;;33.97;;
46745;SDS011;32493;50.514;9.678;2024-01-11T04:27:58;112.55;;;33.13;;
46745;SDS011;32493;50.514;9.678;2024-01-11T04:30:25;106.05;;;32.65;;
46745;SDS011;32493;50.514;9.678;2024-01-11T04:32:54;122.32;;;36.10;;
46745;SDS011;32493;50.514;9.678;2024-01-11T04:35:24;94.05;;;32.33;;
46745;SDS011;32493;50.514;9.678;2024-01-11T04:37:53;98.50;;;31.38;;
46745;SDS011;32493;50.514;9.678;2024-01-11T04:40:22;103.30;;;32.60;;
46745;SDS011;32493;50.514;9.678;2024-01-11T04:42:50;107.18;;;33.08;;
46745;SDS011;32493;50.514;9.678;2024-01-11T04:45:17;100.25;;;30.67;;
46745;SDS011;32493;50.514;9.678;2024-01-11T04:47:45;101.72;;;30.33;;
46745;SDS011;32493;50.514;9.678;2024-01-11T04:50:15;97.57;;;29.83;;
46745;SDS011;32493;50.514;9.678;2024-01-11T04:52:49;105.20;;;33.97;;
46745;SDS011;32493;50.514;9.678;2024-01-11T04:55:19;102.47;;;32.22;;
46745;SDS011;32493;50.514;9.678;2024-01-11T04:57:46;100.95;;;30.50;;
46745;SDS011;32493;50.514;9.678;2024-01-11T05:00:16;101.38;;;30.98;;
46745;SDS011;32493;50.514;9.678;2024-01-11T05:02:46;107.45;;;34.28;;
46745;SDS011;32493;50.514;9.678;2024-01-11T05:05:15;110.22;;;32.60;;
46745;SDS011;32493;50.514;9.678;2024-01-11T05:07:43;100.90;;;34.13;;
46745;SDS011;32493;50.514;9.678;2024-01-11T05:10:11;101.25;;;31.27;;
46745;SDS011;32493;50.514;9.678;2024-01-11T05:12:38;97.18;;;31.63;;
46745;SDS011;32493;50.514;9.678;2024-01-11T05:15:08;99.55;;;30.58;;
46745;SDS011;32493;50.514;9.678;2024-01-11T05:17:36;106.35;;;31.77;;
46745;SDS011;32493;50.514;9.678;2024-01-11T05:20:05;115.32;;;34.50;;
46745;SDS011;32493;50.514;9.678;2024-01-11T05:22:34;101.93;;;32.22;;
46745;SDS011;32493;50.514;9.678;2024-01-11T05:25:02;101.38;;;32.45;;
46745;SDS011;32493;50.514;9.678;2024-01-11T05:27:33;102.70;;;32.53;;
46745;SDS011;32493;50.514;9.678;2024-01-11T05:30:00;100.57;;;31.75;;
46745;SDS011;32493;50.514;9.678;2024-01-11T05:32:30;97.30;;;30.35;;
46745;SDS011;32493;50.514;9.678;2024-01-11T05:34:58;96.68;;;29.60;;
46745;SDS011;32493;50.514;9.678;2024-01-11T05:37:25;98.95;;;29.38;;
46745;SDS011;32493;50.514;9.678;2024-01-11T05:39:55;100.95;;;31.02;;
46745;SDS011;32493;50.514;9.678;2024-01-11T05:42:24;107.40;;;32.72;;
46745;SDS011;32493;50.514;9.678;2024-01-11T05:44:54;91.25;;;31.83;;
46745;SDS011;32493;50.514;9.678;2024-01-11T05:47:24;106.43;;;31.23;;
46745;SDS011;32493;50.514;9.678;2024-01-11T05:49:51;102.05;;;31.65;;
46745;SDS011;32493;50.514;9.678;2024-01-11T05:52:19;104.82;;;32.42;;
46745;SDS011;32493;50.514;9.678;2024-01-11T05:54:50;107.32;;;34.42;;
46745;SDS011;32493;50.514;9.678;2024-01-11T05:57:19;100.10;;;32.72;;
46745;SDS011;32493;50.514;9.678;2024-01-11T05:59:51;106.75;;;31.98;;
46745;SDS011;32493;50.514;9.678;2024-01-11T06:02:22;106.35;;;32.42;;
46745;SDS011;32493;50.514;9.678;2024-01-11T06:04:50;105.13;;;31.33;;
46745;SDS011;32493;50.514;9.678;2024-01-11T06:07:19;105.38;;;32.45;;
46745;SDS011;32493;50.514;9.678;2024-01-11T06:09:47;102.90;;;34.17;;
46745;SDS011;32493;50.514;9.678;2024-01-11T06:12:15;110.20;;;32.08;;
46745;SDS011;32493;50.514;9.678;2024-01-11T06:14:44;106.95;;;33.38;;
46745;SDS011;32493;50.514;9.678;2024-01-11T06:17:13;94.90;;;30.48;;
46745;SDS011;32493;50.514;9.678;2024-01-11T06:19:42;97.20;;;29.98;;
46745;SDS011;32493;50.514;9.678;2024-01-11T06:22:12;104.90;;;30.17;;
46745;SDS011;32493;50.514;9.678;2024-01-11T06:24:39;106.40;;;28.52;;
46745;SDS011;32493;50.514;9.678;2024-01-11T06:27:06;93.80;;;30.67;;
46745;SDS011;32493;50.514;9.678;2024-01-11T06:29:36;112.80;;;30.48;;
46745;SDS011;32493;50.514;9.678;2024-01-11T06:32:08;95.00;;;31.98;;
46745;SDS011;32493;50.514;9.678;2024-01-11T06:34:38;92.43;;;28.88;;
46745;SDS011;32493;50.514;9.678;2024-01-11T06:37:08;103.18;;;31.23;;
46745;SDS011;32493;50.514;9.678;2024-01-11T06:39:43;100.57;;;30.65;;
46745;SDS011;32493;50.514;9.678;2024-01-11T06:42:10;97.38;;;30.67;;
46745;SDS011;32493;50.514;9.678;2024-01-11T06:44:38;103.68;;;33.45;;
46745;SDS011;32493;50.514;9.678;2024-01-11T06:47:05;98.90;;;29.50;;
46745;SDS011;32493;50.514;9.678;2024-01-11T06:49:38;93.60;;;30.13;;
46745;SDS011;32493;50.514;9.678;2024-01-11T06:52:07;100.22;;;27.70;;
46745;SDS011;32493;50.514;9.678;2024-01-11T06:54:36;97.55;;;29.52;;
46745;SDS011;32493;50.514;9.678;2024-01-11T06:57:05;95.38;;;28.20;;
46745;SDS011;32493;50.514;9.678;2024-01-11T06:59:35;101.20;;;30.55;;
46745;SDS011;32493;50.514;9.678;2024-01-11T07:02:06;131.40;;;35.40;;
46745;SDS011;32493;50.514;9.678;2024-01-11T07:04:34;93.70;;;28.80;;
46745;SDS011;32493;50.514;9.678;2024-01-11T07:07:01;99.18;;;31.10;;
46745;SDS011;32493;50.514;9.678;2024-01-11T07:09:31;116.47;;;31.98;;
46745;SDS011;32493;50.514;9.678;2024-01-11T07:12:03;112.90;;;34.30;;
46745;SDS011;32493;50.514;9.678;2024-01-11T07:14:34;110.50;;;33.80;;
46745;SDS011;32493;50.514;9.678;2024-01-11T07:17:04;105.00;;;30.42;;
46745;SDS011;32493;50.514;9.678;2024-01-11T07:19:32;107.97;;;31.95;;
46745;SDS011;32493;50.514;9.678;2024-01-11T07:22:00;103.45;;;32.30;;
46745;SDS011;32493;50.514;9.678;2024-01-11T07:24:32;110.68;;;31.15;;
46745;SDS011;32493;50.514;9.678;2024-01-11T07:27:05;109.70;;;33.20;;
46745;SDS011;32493;50.514;9.678;2024-01-11T07:29:33;110.80;;;34.53;;
46745;SDS011;32493;50.514;9.678;2024-01-11T07:32:01;114.18;;;33.22;;
46745;SDS011;32493;50.514;9.678;2024-01-11T07:34:31;107.18;;;32.35;;
46745;SDS011;32493;50.514;9.678;2024-01-11T07:37:03;110.53;;;34.20;;
46745;SDS011;32493;50.514;9.678;2024-01-11T07:39:32;113.35;;;33.53;;
46745;SDS011;32493;50.514;9.678;2024-01-11T07:42:04;97.97;;;31.67;;
46745;SDS011;32493;50.514;9.678;2024-01-11T07:44:33;124.82;;;37.08;;
46745;SDS011;32493;50.514;9.678;2024-01-11T07:47:01;115.25;;;35.42;;
46745;SDS011;32493;50.514;9.678;2024-01-11T07:49:43;115.45;;;36.08;;
46745;SDS011;32493;50.514;9.678;2024-01-11T07:52:15;112.07;;;36.70;;
46745;SDS011;32493;50.514;9.678;2024-01-11T07:54:47;106.45;;;31.45;;
46745;SDS011;32493;50.514;9.678;2024-01-11T07:57:14;117.78;;;32.47;;
46745;SDS011;32493;50.514;9.678;2024-01-11T07:59:48;107.78;;;33.08;;
46745;SDS011;32493;50.514;9.678;2024-01-11T08:02:25;112.85;;;32.72;;
46745;SDS011;32493;50.514;9.678;2024-01-11T08:04:53;109.88;;;35.05;;
46745;SDS011;32493;50.514;9.678;2024-01-11T08:07:21;109.22;;;31.83;;
46745;SDS011;32493;50.514;9.678;2024-01-11T08:09:52;103.88;;;30.83;;
46745;SDS011;32493;50.514;9.678;2024-01-11T08:12:19;114.10;;;34.58;;
46745;SDS011;32493;50.514;9.678;2024-01-11T08:14:47;111.82;;;33.90;;
46745;SDS011;32493;50.514;9.678;2024-01-11T08:17:16;116.03;;;33.58;;
46745;SDS011;32493;50.514;9.678;2024-01-11T08:19:47;113.78;;;36.53;;
46745;SDS011;32493;50.514;9.678;2024-01-11T08:22:16;108.38;;;35.70;;
46745;SDS011;32493;50.514;9.678;2024-01-11T08:24:45;119.40;;;34.05;;
46745;SDS011;32493;50.514;9.678;2024-01-11T08:27:13;121.97;;;34.20;;
46745;SDS011;32493;50.514;9.678;2024-01-11T08:29:44;116.10;;;34.78;;
46745;SDS011;32493;50.514;9.678;2024-01-11T08:32:14;113.43;;;34.47;;
46745;SDS011;32493;50.514;9.678;2024-01-11T08:34:57;113.47;;;36.35;;
46745;SDS011;32493;50.514;9.678;2024-01-11T08:37:26;115.95;;;36.63;;
46745;SDS011;32493;50.514;9.678;2024-01-11T08:39:55;117.75;;;35.13;;
46745;SDS011;32493;50.514;9.678;2024-01-11T08:42:22;116.22;;;34.83;;
46745;SDS011;32493;50.514;9.678;2024-01-11T08:44:50;106.28;;;34.47;;
46745;SDS011;32493;50.514;9.678;2024-01-11T08:47:19;119.88;;;34.40;;
46745;SDS011;32493;50.514;9.678;2024-01-11T08:49:46;107.05;;;33.45;;
46745;SDS011;32493;50.514;9.678;2024-01-11T08:52:15;101.53;;;33.28;;
46745;SDS011;32493;50.514;9.678;2024-01-11T08:54:43;119.38;;;36.17;;
46745;SDS011;32493;50.514;9.678;2024-01-11T08:57:10;111.78;;;35.70;;
46745;SDS011;32493;50.514;9.678;2024-01-11T08:59:41;118.65;;;35.35;;
46745;SDS011;32493;50.514;9.678;2024-01-11T09:02:13;116.60;;;34.53;;
46745;SDS011;32493;50.514;9.678;2024-01-11T09:04:46;105.28;;;35.15;;
46745;SDS011;32493;50.514;9.678;2024-01-11T09:07:17;118.35;;;36.60;;
46745;SDS011;32493;50.514;9.678;2024-01-11T09:09:44;114.07;;;36.13;;
46745;SDS011;32493;50.514;9.678;2024-01-11T09:12:23;109.47;;;37.05;;
46745;SDS011;32493;50.514;9.678;2024-01-11T09:14:57;122.47;;;36.90;;
46745;SDS011;32493;50.514;9.678;2024-01-11T09:17:27;113.28;;;37.35;;
46745;SDS011;32493;50.514;9.678;2024-01-11T09:19:57;114.03;;;38.05;;
46745;SDS011;32493;50.514;9.678;2024-01-11T09:22:25;113.05;;;38.05;;
46745;SDS011;32493;50.514;9.678;2024-01-11T09:24:53;117.20;;;37.55;;
46745;SDS011;32493;50.514;9.678;2024-01-11T09:27:22;109.53;;;34.17;;
46745;SDS011;32493;50.514;9.678;2024-01-11T09:29:51;104.78;;;30.95;;
46745;SDS011;32493;50.514;9.678;2024-01-11T09:32:22;114.25;;;33.53;;
46745;SDS011;32493;50.514;9.678;2024-01-11T09:34:52;107.75;;;35.30;;
46745;SDS011;32493;50.514;9.678;2024-01-11T09:37:21;104.60;;;33.78;;
46745;SDS011;32493;50.514;9.678;2024-01-11T09:39:50;114.32;;;37.72;;
46745;SDS011;32493;50.514;9.678;2024-01-11T09:42:18;112.53;;;36.20;;
46745;SDS011;32493;50.514;9.678;2024-01-11T09:44:48;102.70;;;33.83;;
46745;SDS011;32493;50.514;9.678;2024-01-11T09:47:16;116.43;;;35.47;;
46745;SDS011;32493;50.514;9.678;2024-01-11T09:49:45;111.88;;;36.78;;
46745;SDS011;32493;50.514;9.678;2024-01-11T09:52:12;114.03;;;36.72;;
46745;SDS011;32493;50.514;9.678;2024-01-11T09:54:42;100.05;;;36.42;;
46745;SDS011;32493;50.514;9.678;2024-01-11T09:57:12;116.68;;;40.28;;
46745;SDS011;32493;50.514;9.678;2024-01-11T09:59:41;112.13;;;38.05;;
46745;SDS011;32493;50.514;9.678;2024-01-11T10:02:10;109.18;;;35.60;;
46745;SDS011;32493;50.514;9.678;2024-01-11T10:04:43;125.80;;;39.05;;
46745;SDS011;32493;50.514;9.678;2024-01-11T10:07:10;122.32;;;38.47;;
46745;SDS011;32493;50.514;9.678;2024-01-11T10:09:40;115.25;;;37.72;;
46745;SDS011;32493;50.514;9.678;2024-01-11T10:12:08;108.28;;;36.85;;
46745;SDS011;32493;50.514;9.678;2024-01-11T10:14:37;120.70;;;39.53;;
46745;SDS011;32493;50.514;9.678;2024-01-11T10:17:05;124.07;;;39.83;;
46745;SDS011;32493;50.514;9.678;2024-01-11T10:19:38;120.32;;;40.15;;
46745;SDS011;32493;50.514;9.678;2024-01-11T10:22:05;115.15;;;39.10;;
46745;SDS011;32493;50.514;9.678;2024-01-11T10:24:34;109.38;;;38.58;;
46745;SDS011;32493;50.514;9.678;2024-01-11T10:27:03;122.78;;;41.22;;
46745;SDS011;32493;50.514;9.678;2024-01-11T10:29:33;113.50;;;40.38;;
46745;SDS011;32493;50.514;9.678;2024-01-11T10:32:03;117.90;;;38.03;;
46745;SDS011;32493;50.514;9.678;2024-01-11T10:34:31;105.65;;;38.00;;
46745;SDS011;32493;50.514;9.678;2024-01-11T10:37:01;113.50;;;38.60;;
46745;SDS011;32493;50.514;9.678;2024-01-11T10:39:29;105.60;;;36.45;;
46745;SDS011;32493;50.514;9.678;2024-01-11T10:42:04;111.43;;;38.28;;
46745;SDS011;32493;50.514;9.678;2024-01-11T10:44:34;116.95;;;40.60;;
46745;SDS011;32493;50.514;9.678;2024-01-11T10:47:03;110.18;;;38.95;;
46745;SDS011;32493;50.514;9.678;2024-01-11T10:49:35;108.90;;;38.50;;
46745;SDS011;32493;50.514;9.678;2024-01-11T10:52:07;102.65;;;38.47;;
46745;SDS011;32493;50.514;9.678;2024-01-11T10:54:35;101.10;;;39.65;;
46745;SDS011;32493;50.514;9.678;2024-01-11T10:57:03;105.68;;;38.60;;
46745;SDS011;32493;50.514;9.678;2024-01-11T10:59:32;105.35;;;37.47;;
46745;SDS011;32493;50.514;9.678;2024-01-11T11:02:03;105.18;;;37.85;;
46745;SDS011;32493;50.514;9.678;2024-01-11T11:04:33;111.15;;;38.75;;
46745;SDS011;32493;50.514;9.678;2024-01-11T11:07:02;118.90;;;40.67;;
46745;SDS011;32493;50.514;9.678;2024-01-11T11:09:31;115.30;;;40.45;;
46745;SDS011;32493;50.514;9.678;2024-01-11T11:12:00;100.80;;;37.50;;
46745;SDS011;32493;50.514;9.678;2024-01-11T11:14:30;110.65;;;38.38;;
46745;SDS011;32493;50.514;9.678;2024-01-11T11:16:58;121.90;;;45.47;;
46745;SDS011;32493;50.514;9.678;2024-01-11T11:19:26;107.53;;;37.58;;
46745;SDS011;32493;50.514;9.678;2024-01-11T11:21:55;104.93;;;37.72;;
46745;SDS011;32493;50.514;9.678;2024-01-11T11:24:24;111.18;;;37.28;;
46745;SDS011;32493;50.514;9.678;2024-01-11T11:26:52;108.45;;;37.78;;
46745;SDS011;32493;50.514;9.678;2024-01-11T11:31:47;104.13;;;36.75;;
46745;SDS011;32493;50.514;9.678;2024-01-11T11:34:20;98.82;;;37.95;;
46745;SDS011;32493;50.514;9.678;2024-01-11T11:36:47;92.95;;;34.05;;
46745;SDS011;32493;50.514;9.678;2024-01-11T11:39:21;90.03;;;32.80;;
46745;SDS011;32493;50.514;9.678;2024-01-11T11:41:50;108.45;;;36.50;;
46745;SDS011;32493;50.514;9.678;2024-01-11T11:44:19;105.82;;;38.22;;
46745;SDS011;32493;50.514;9.678;2024-01-11T11:46:47;110.57;;;38.78;;
46745;SDS011;32493;50.514;9.678;2024-01-11T11:49:15;99.45;;;36.10;;
46745;SDS011;32493;50.514;9.678;2024-01-11T11:51:46;104.00;;;37.10;;
46745;SDS011;32493;50.514;9.678;2024-01-11T11:54:20;102.05;;;36.30;;
46745;SDS011;32493;50.514;9.678;2024-01-11T11:56:52;99.43;;;35.13;;
46745;SDS011;32493;50.514;9.678;2024-01-11T11:59:22;101.03;;;35.97;;
46745;SDS011;32493;50.514;9.678;2024-01-11T12:01:51;97.43;;;36.65;;
46745;SDS011;32493;50.514;9.678;2024-01-11T12:06:47;95.30;;;35.53;;
46745;SDS011;32493;50.514;9.678;2024-01-11T12:09:18;97.75;;;35.35;;
46745;SDS011;32493;50.514;9.678;2024-01-11T12:11:49;98.75;;;36.78;;
46745;SDS011;32493;50.514;9.678;2024-01-11T12:14:32;92.85;;;34.53;;
46745;SDS011;32493;50.514;9.678;2024-01-11T12:17:02;97.90;;;36.47;;
46745;SDS011;32493;50.514;9.678;2024-01-11T12:19:30;93.82;;;35.70;;
46745;SDS011;32493;50.514;9.678;2024-01-11T12:21:59;94.82;;;37.25;;
46745;SDS011;32493;50.514;9.678;2024-01-11T12:24:27;98.97;;;38.15;;
46745;SDS011;32493;50.514;9.678;2024-01-11T12:26:59;100.75;;;37.72;;
46745;SDS011;32493;50.514;9.678;2024-01-11T12:29:29;86.22;;;32.80;;
46745;SDS011;32493;50.514;9.678;2024-01-11T12:32:09;89.70;;;33.53;;
46745;SDS011;32493;50.514;9.678;2024-01-11T12:34:47;93.07;;;35.67;;
46745;SDS011;32493;50.514;9.678;2024-01-11T12:37:15;96.15;;;35.08;;
46745;SDS011;32493;50.514;9.678;2024-01-11T12:39:42;84.15;;;33.72;;
46745;SDS011;32493;50.514;9.678;2024-01-11T12:42:09;85.50;;;33.50;;
46745;SDS011;32493;50.514;9.678;2024-01-11T12:44:38;88.97;;;33.70;;
46745;SDS011;32493;50.514;9.678;2024-01-11T12:47:08;86.90;;;33.17;;
46745;SDS011;32493;50.514;9.678;2024-01-11T12:49:42;82.45;;;32.33;;
46745;SDS011;32493;50.514;9.678;2024-01-11T12:52:16;83.15;;;33.28;;
46745;SDS011;32493;50.514;9.678;2024-01-11T12:54:55;87.88;;;32.13;;
46745;SDS011;32493;50.514;9.678;2024-01-11T12:57:23;77.80;;;33.05;;
46745;SDS011;32493;50.514;9.678;2024-01-11T12:59:54;85.63;;;34.42;;
46745;SDS011;32493;50.514;9.678;2024-01-11T13:02:42;83.63;;;32.85;;
46745;SDS011;32493;50.514;9.678;2024-01-11T13:05:14;83.10;;;32.60;;
46745;SDS011;32493;50.514;9.678;2024-01-11T13:07:42;86.65;;;34.55;;
46745;SDS011;32493;50.514;9.678;2024-01-11T13:10:13;93.20;;;36.85;;
46745;SDS011;32493;50.514;9.678;2024-01-11T13:12:42;87.63;;;35.03;;
46745;SDS011;32493;50.514;9.678;2024-01-11T13:15:13;76.47;;;32.80;;
46745;SDS011;32493;50.514;9.678;2024-01-11T13:20:10;75.25;;;31.75;;
46745;SDS011;32493;50.514;9.678;2024-01-11T13:22:41;82.78;;;35.10;;
46745;SDS011;32493;50.514;9.678;2024-01-11T13:25:08;81.32;;;32.97;;
46745;SDS011;32493;50.514;9.678;2024-01-11T13:30:06;75.18;;;32.42;;
46745;SDS011;32493;50.514;9.678;2024-01-11T13:32:35;78.40;;;31.48;;
46745;SDS011;32493;50.514;9.678;2024-01-11T13:35:02;74.47;;;29.73;;
46745;SDS011;32493;50.514;9.678;2024-01-11T13:37:31;73.28;;;29.92;;
46745;SDS011;32493;50.514;9.678;2024-01-11T13:40:01;74.95;;;31.15;;
46745;SDS011;32493;50.514;9.678;2024-01-11T13:42:33;69.30;;;29.80;;
46745;SDS011;32493;50.514;9.678;2024-01-11T13:45:04;64.90;;;29.20;;
46745;SDS011;32493;50.514;9.678;2024-01-11T13:47:36;64.18;;;27.98;;
46745;SDS011;32493;50.514;9.678;2024-01-11T13:50:05;64.70;;;27.05;;
46745;SDS011;32493;50.514;9.678;2024-01-11T13:52:37;62.70;;;27.83;;
46745;SDS011;32493;50.514;9.678;2024-01-11T13:55:06;62.78;;;26.90;;
46745;SDS011;32493;50.514;9.678;2024-01-11T13:57:37;70.15;;;29.10;;
46745;SDS011;32493;50.514;9.678;2024-01-11T14:00:06;66.63;;;27.45;;
46745;SDS011;32493;50.514;9.678;2024-01-11T14:02:37;66.00;;;28.50;;
46745;SDS011;32493;50.514;9.678;2024-01-11T14:05:07;66.40;;;27.48;;
46745;SDS011;32493;50.514;9.678;2024-01-11T14:07:39;62.17;;;26.88;;
46745;SDS011;32493;50.514;9.678;2024-01-11T14:10:07;64.65;;;27.95;;
46745;SDS011;32493;50.514;9.678;2024-01-11T14:12:37;58.28;;;26.48;;
46745;SDS011;32493;50.514;9.678;2024-01-11T14:15:04;59.10;;;26.60;;
46745;SDS011;32493;50.514;9.678;2024-01-11T14:17:34;66.05;;;28.00;;
46745;SDS011;32493;50.514;9.678;2024-01-11T14:20:02;63.53;;;27.20;;
46745;SDS011;32493;50.514;9.678;2024-01-11T14:22:34;65.07;;;28.27;;
46745;SDS011;32493;50.514;9.678;2024-01-11T14:27:31;67.47;;;27.10;;
46745;SDS011;32493;50.514;9.678;2024-01-11T14:30:02;59.83;;;26.30;;
46745;SDS011;32493;50.514;9.678;2024-01-11T14:32:32;57.28;;;24.75;;
46745;SDS011;32493;50.514;9.678;2024-01-11T14:35:05;58.22;;;23.92;;
46745;SDS011;32493;50.514;9.678;2024-01-11T14:37:37;54.10;;;24.67;;
46745;SDS011;32493;50.514;9.678;2024-01-11T14:40:05;54.00;;;23.63;;
46745;SDS011;32493;50.514;9.678;2024-01-11T14:42:39;49.33;;;23.08;;
46745;SDS011;32493;50.514;9.678;2024-01-11T14:45:07;51.20;;;23.30;;
46745;SDS011;32493;50.514;9.678;2024-01-11T14:47:36;47.92;;;22.98;;
46745;SDS011;32493;50.514;9.678;2024-01-11T14:50:05;45.72;;;21.92;;
46745;SDS011;32493;50.514;9.678;2024-01-11T14:52:38;46.75;;;22.58;;